createdAt,value
2023-10-14T00:00:28.310Z,12.52
2023-10-14T00:01:33.223Z,12.53
2023-10-14T00:02:30.057Z,12.45
2023-10-14T00:03:36.371Z,12.48
2023-10-14T00:04:33.180Z,12.50
2023-10-14T00:05:29.972Z,12.55
2023-10-14T00:06:27.911Z,12.58
2023-10-14T00:07:27.067Z,12.63
2023-10-14T00:08:27.680Z,12.66
2023-10-14T00:09:25.944Z,12.66
2023-10-14T00:10:23.776Z,12.49
2023-10-14T00:11:22.715Z,12.29
2023-10-14T00:12:21.697Z,12.32
2023-10-14T00:13:18.717Z,12.17
2023-10-14T00:14:19.821Z,12.22
2023-10-14T00:15:16.537Z,12.38
2023-10-14T00:16:25.593Z,12.39
2023-10-14T00:17:22.451Z,12.39
2023-10-14T00:18:19.041Z,12.30
2023-10-14T00:19:15.981Z,12.34
2023-10-14T00:20:12.963Z,12.28
2023-10-14T00:21:13.526Z,12.17
2023-10-14T00:22:10.212Z,12.26
2023-10-14T00:23:07.081Z,12.22
2023-10-14T00:24:06.855Z,12.16
2023-10-14T00:25:04.125Z,12.10
2023-10-14T00:26:00.860Z,12.00
2023-10-14T00:26:58.868Z,12.01
2023-10-14T00:27:55.663Z,11.82
2023-10-14T00:29:11.263Z,11.87
2023-10-14T00:30:11.247Z,11.97
2023-10-14T00:31:08.835Z,11.90
2023-10-14T00:32:05.854Z,11.95
2023-10-14T00:33:04.661Z,12.00
2023-10-14T00:34:01.406Z,11.97
2023-10-14T00:34:58.181Z,11.95
2023-10-14T00:35:57.390Z,11.78
2023-10-14T00:37:00.004Z,11.87
2023-10-14T00:37:57.108Z,11.95
2023-10-14T00:38:59.707Z,11.76
2023-10-14T00:40:02.630Z,11.79
2023-10-14T00:41:00.642Z,11.94
2023-10-14T00:42:00.805Z,11.75
2023-10-14T00:42:58.921Z,11.57
2023-10-14T00:43:58.110Z,11.63
2023-10-14T00:44:54.710Z,11.71
2023-10-14T00:45:51.439Z,11.74
2023-10-14T00:46:52.027Z,11.68
2023-10-14T00:47:49.975Z,11.85
2023-10-14T00:48:48.194Z,11.76
2023-10-14T00:49:47.016Z,11.84
2023-10-14T00:50:43.817Z,11.83
2023-10-14T00:51:46.165Z,11.85
2023-10-14T00:52:45.543Z,11.99
2023-10-14T00:54:06.149Z,12.22
2023-10-14T00:55:14.356Z,12.04
2023-10-14T00:56:16.610Z,12.06
2023-10-14T00:57:19.381Z,12.16
2023-10-14T00:58:22.485Z,11.99
2023-10-14T00:59:19.814Z,11.63
2023-10-14T01:00:23.654Z,11.82
2023-10-14T01:01:20.809Z,11.70
2023-10-14T01:02:38.655Z,11.85
2023-10-14T01:03:35.850Z,11.77
2023-10-14T01:04:35.674Z,11.74
2023-10-14T01:05:33.236Z,11.75
2023-10-14T01:06:36.210Z,11.75
2023-10-14T01:07:32.913Z,11.73
2023-10-14T01:08:30.925Z,11.73
2023-10-14T01:09:41.386Z,11.78
2023-10-14T01:10:40.358Z,11.73
2023-10-14T01:11:42.879Z,11.82
2023-10-14T01:12:43.724Z,11.83
2023-10-14T01:13:41.221Z,11.85
2023-10-14T01:14:38.967Z,11.87
2023-10-14T01:15:43.299Z,11.90
2023-10-14T01:16:42.484Z,11.92
2023-10-14T01:17:39.385Z,11.97
2023-10-14T01:18:40.840Z,11.97
2023-10-14T01:19:38.961Z,12.07
2023-10-14T01:20:39.267Z,12.21
2023-10-14T01:21:41.811Z,12.21
2023-10-14T01:22:41.758Z,12.11
2023-10-14T01:23:38.920Z,12.13
2023-10-14T01:24:39.858Z,12.07
2023-10-14T01:25:43.203Z,12.15
2023-10-14T01:26:50.108Z,11.93
2023-10-14T01:27:46.833Z,12.01
2023-10-14T01:28:53.755Z,12.04
2023-10-14T01:29:52.953Z,12.02
2023-10-14T01:31:30.273Z,11.94
2023-10-14T01:32:40.627Z,11.90
2023-10-14T01:33:37.807Z,11.91
2023-10-14T01:34:43.361Z,11.88
2023-10-14T01:35:44.854Z,11.87
2023-10-14T01:36:42.573Z,11.74
2023-10-14T01:37:47.516Z,11.74
2023-10-14T01:38:52.370Z,11.78
2023-10-14T01:39:58.319Z,11.75
2023-10-14T01:40:55.063Z,11.62
2023-10-14T01:41:54.824Z,11.58
2023-10-14T01:42:59.660Z,11.50
2023-10-14T01:43:58.662Z,11.48
2023-10-14T01:44:55.324Z,11.61
2023-10-14T01:46:02.034Z,11.71
2023-10-14T01:46:59.067Z,11.76
2023-10-14T01:48:12.921Z,11.72
2023-10-14T01:49:17.620Z,11.86
2023-10-14T01:50:14.398Z,11.86
2023-10-14T01:51:11.118Z,11.70
2023-10-14T01:52:10.741Z,11.74
2023-10-14T01:53:14.315Z,11.77
2023-10-14T01:54:11.585Z,11.71
2023-10-14T01:55:10.346Z,11.75
2023-10-14T01:56:07.901Z,11.72
2023-10-14T01:57:06.612Z,11.67
2023-10-14T01:58:04.253Z,11.59
2023-10-14T01:59:01.417Z,11.71
2023-10-14T01:59:58.446Z,11.70
2023-10-14T02:01:24.384Z,11.69
2023-10-14T02:02:22.779Z,11.65
2023-10-14T02:03:23.332Z,11.57
2023-10-14T02:04:20.790Z,11.60
2023-10-14T02:05:17.914Z,11.62
2023-10-14T02:06:19.359Z,11.59
2023-10-14T02:07:22.385Z,11.52
2023-10-14T02:08:22.913Z,11.72
2023-10-14T02:09:20.990Z,11.55
2023-10-14T02:10:18.031Z,11.64
2023-10-14T02:11:17.902Z,11.66
2023-10-14T02:12:14.602Z,11.61
2023-10-14T02:13:11.376Z,11.71
2023-10-14T02:14:10.164Z,11.70
2023-10-14T02:15:09.384Z,11.54
2023-10-14T02:16:09.519Z,11.44
2023-10-14T02:17:06.494Z,11.46
2023-10-14T02:18:05.310Z,11.40
2023-10-14T02:19:18.640Z,11.38
2023-10-14T02:20:21.312Z,11.41
2023-10-14T02:21:19.346Z,11.37
2023-10-14T02:22:18.267Z,11.43
2023-10-14T02:23:14.909Z,11.46
2023-10-14T02:24:11.959Z,11.47
2023-10-14T02:25:08.883Z,11.55
2023-10-14T02:26:09.716Z,11.65
2023-10-14T02:27:13.733Z,11.52
2023-10-14T02:28:15.748Z,11.30
2023-10-14T02:29:16.629Z,11.31
2023-10-14T02:30:13.482Z,11.33
2023-10-14T02:31:33.096Z,11.56
2023-10-14T02:32:29.835Z,11.37
2023-10-14T02:33:26.741Z,11.39
2023-10-14T02:34:23.481Z,11.64
2023-10-14T02:35:20.137Z,12.02
2023-10-14T02:36:17.852Z,12.30
2023-10-14T02:37:15.470Z,12.08
2023-10-14T02:38:12.597Z,11.63
2023-10-14T02:39:18.864Z,11.52
2023-10-14T02:40:25.118Z,11.38
2023-10-14T02:41:22.554Z,11.34
2023-10-14T02:42:19.396Z,11.44
2023-10-14T02:43:18.250Z,11.26
2023-10-14T02:44:15.144Z,11.43
2023-10-14T02:45:13.747Z,11.48
2023-10-14T02:46:12.984Z,11.47
2023-10-14T02:47:10.520Z,11.42
2023-10-14T02:48:07.497Z,11.44
2023-10-14T02:49:04.312Z,11.47
2023-10-14T02:50:09.244Z,11.49
2023-10-14T02:51:07.564Z,11.58
2023-10-14T02:52:12.257Z,11.86
2023-10-14T02:53:09.057Z,12.03
2023-10-14T02:54:14.287Z,11.85
2023-10-14T02:55:26.936Z,11.66
2023-10-14T02:56:34.487Z,11.39
2023-10-14T02:57:31.130Z,11.16
2023-10-14T02:58:30.845Z,11.13
2023-10-14T02:59:44.761Z,11.18
2023-10-14T03:00:41.751Z,10.88
2023-10-14T03:01:41.901Z,10.85
2023-10-14T03:02:50.123Z,11.06
2023-10-14T03:03:47.956Z,10.95
2023-10-14T03:04:55.436Z,11.17
2023-10-14T03:05:52.678Z,10.97
2023-10-14T03:06:55.024Z,10.97
2023-10-14T03:07:52.154Z,10.94
2023-10-14T03:09:04.414Z,11.06
2023-10-14T03:10:18.458Z,11.05
2023-10-14T03:11:18.401Z,11.03
2023-10-14T03:12:20.021Z,11.00
2023-10-14T03:13:16.678Z,11.08
2023-10-14T03:14:13.450Z,11.21
2023-10-14T03:15:21.018Z,11.41
2023-10-14T03:16:18.690Z,11.26
2023-10-14T03:17:37.324Z,11.14
2023-10-14T03:18:39.887Z,11.00
2023-10-14T03:19:36.480Z,10.92
2023-10-14T03:20:57.807Z,10.84
2023-10-14T03:21:59.961Z,10.87
2023-10-14T03:23:19.192Z,10.89
2023-10-14T03:24:18.588Z,10.92
2023-10-14T03:25:18.253Z,10.84
2023-10-14T03:26:15.338Z,10.73
2023-10-14T03:27:12.296Z,10.78
2023-10-14T03:28:13.702Z,10.78
2023-10-14T03:29:17.348Z,10.70
2023-10-14T03:30:14.271Z,10.98
2023-10-14T03:31:16.072Z,11.05
2023-10-14T03:32:12.900Z,10.98
2023-10-14T03:33:10.653Z,10.82
2023-10-14T03:34:10.688Z,10.79
2023-10-14T03:35:13.148Z,10.78
2023-10-14T03:36:16.591Z,10.77
2023-10-14T03:37:27.059Z,10.67
2023-10-14T03:38:34.672Z,10.62
2023-10-14T03:39:47.347Z,10.53
2023-10-14T03:40:49.665Z,10.56
2023-10-14T03:41:53.091Z,10.47
2023-10-14T03:42:53.777Z,10.56
2023-10-14T03:43:57.786Z,10.69
2023-10-14T03:44:59.223Z,10.52
2023-10-14T03:45:57.847Z,10.72
2023-10-14T03:47:01.850Z,10.80
2023-10-14T03:48:03.289Z,10.74
2023-10-14T03:49:10.736Z,10.77
2023-10-14T03:50:08.594Z,10.87
2023-10-14T03:51:05.266Z,10.96
2023-10-14T03:52:01.915Z,10.98
2023-10-14T03:52:59.056Z,11.02
2023-10-14T03:54:08.041Z,10.95
2023-10-14T03:55:09.891Z,10.86
2023-10-14T03:56:07.928Z,10.84
2023-10-14T03:57:04.863Z,10.84
2023-10-14T03:58:04.946Z,10.95
2023-10-14T03:59:03.029Z,10.96
2023-10-14T04:00:09.936Z,11.06
2023-10-14T04:01:06.907Z,11.19
2023-10-14T04:02:06.814Z,11.08
2023-10-14T04:03:14.114Z,10.93
2023-10-14T04:04:21.642Z,10.76
2023-10-14T04:05:20.341Z,10.69
2023-10-14T04:06:16.961Z,10.40
2023-10-14T04:07:13.674Z,10.34
2023-10-14T04:08:10.413Z,10.51
2023-10-14T04:09:11.853Z,10.45
2023-10-14T04:10:11.150Z,10.44
2023-10-14T04:11:17.049Z,10.40
2023-10-14T04:12:43.337Z,10.29
2023-10-14T04:14:12.627Z,10.30
2023-10-14T04:15:15.728Z,10.54
2023-10-14T04:16:14.035Z,10.31
2023-10-14T04:17:21.145Z,10.25
2023-10-14T04:18:25.432Z,10.29
2023-10-14T04:19:28.071Z,10.33
2023-10-14T04:20:31.222Z,10.28
2023-10-14T04:21:38.298Z,10.40
2023-10-14T04:22:40.118Z,10.38
2023-10-14T04:23:39.665Z,10.21
2023-10-14T04:24:36.313Z,10.34
2023-10-14T04:25:43.081Z,10.44
2023-10-14T04:26:42.437Z,10.30
2023-10-14T04:27:52.600Z,10.20
2023-10-14T04:28:55.264Z,9.92
2023-10-14T04:30:03.625Z,9.91
2023-10-14T04:31:08.323Z,10.08
2023-10-14T04:32:26.398Z,10.15
2023-10-14T04:33:35.642Z,10.32
2023-10-14T04:34:32.361Z,10.39
2023-10-14T04:35:34.484Z,10.47
2023-10-14T04:36:36.813Z,10.21
2023-10-14T04:37:51.888Z,10.02
2023-10-14T04:39:05.710Z,9.99
2023-10-14T04:40:17.089Z,9.91
2023-10-14T04:41:25.321Z,9.93
2023-10-14T04:42:21.986Z,9.98
2023-10-14T04:43:18.801Z,10.07
2023-10-14T04:44:15.681Z,10.16
2023-10-14T04:45:14.731Z,10.17
2023-10-14T04:46:14.403Z,9.87
2023-10-14T04:47:21.398Z,10.33
2023-10-14T04:48:28.738Z,10.35
2023-10-14T04:49:38.575Z,10.47
2023-10-14T04:50:40.115Z,10.53
2023-10-14T04:51:46.804Z,10.53
2023-10-14T04:52:49.512Z,10.53
2023-10-14T04:53:51.123Z,10.65
2023-10-14T04:55:01.478Z,10.64
2023-10-14T04:56:02.362Z,10.66
2023-10-14T04:56:59.268Z,10.63
2023-10-14T04:58:12.681Z,10.53
2023-10-14T04:59:09.713Z,10.44
2023-10-14T05:00:09.780Z,10.42
2023-10-14T05:01:10.781Z,10.48
2023-10-14T05:02:12.986Z,10.47
2023-10-14T05:03:14.308Z,10.68
2023-10-14T05:04:11.057Z,10.84
2023-10-14T05:05:08.525Z,10.73
2023-10-14T05:06:16.252Z,10.72
2023-10-14T05:07:13.023Z,10.77
2023-10-14T05:08:15.722Z,10.82
2023-10-14T05:09:30.845Z,10.84
2023-10-14T05:10:29.739Z,10.89
2023-10-14T05:11:27.553Z,10.92
2023-10-14T05:12:26.655Z,11.11
2023-10-14T05:13:36.828Z,11.07
2023-10-14T05:14:38.401Z,11.31
2023-10-14T05:15:40.796Z,11.41
2023-10-14T05:17:01.949Z,11.46
2023-10-14T05:18:01.965Z,11.47
2023-10-14T05:19:04.969Z,11.54
2023-10-14T05:20:01.654Z,11.58
2023-10-14T05:21:11.125Z,11.55
2023-10-14T05:22:20.209Z,11.71
2023-10-14T05:23:21.138Z,11.72
2023-10-14T05:24:17.794Z,11.71
2023-10-14T05:25:18.191Z,11.74
2023-10-14T05:26:15.692Z,11.76
2023-10-14T05:27:12.797Z,11.79
2023-10-14T05:28:09.607Z,11.89
2023-10-14T05:29:18.370Z,11.69
2023-10-14T05:30:23.053Z,11.85
2023-10-14T05:31:20.110Z,11.83
2023-10-14T05:32:16.972Z,11.82
2023-10-14T05:33:15.391Z,11.92
2023-10-14T05:34:12.282Z,11.87
2023-10-14T05:35:11.344Z,11.89
2023-10-14T05:36:08.379Z,11.96
2023-10-14T05:37:10.477Z,11.97
2023-10-14T05:38:13.325Z,12.04
2023-10-14T05:39:11.428Z,12.09
2023-10-14T05:40:15.104Z,12.01
2023-10-14T05:41:12.832Z,12.12
2023-10-14T05:42:23.264Z,12.20
2023-10-14T05:43:23.116Z,12.26
2023-10-14T05:44:19.831Z,12.29
2023-10-14T05:45:16.494Z,12.20
2023-10-14T05:46:13.762Z,12.21
2023-10-14T05:47:11.729Z,12.27
2023-10-14T05:48:11.989Z,12.41
2023-10-14T05:49:09.379Z,12.49
2023-10-14T05:50:09.452Z,12.56
2023-10-14T05:51:06.221Z,12.56
2023-10-14T05:52:02.933Z,12.72
2023-10-14T05:53:02.419Z,12.76
2023-10-14T05:53:59.398Z,12.61
2023-10-14T05:54:57.024Z,12.54
2023-10-14T05:56:10.948Z,12.74
2023-10-14T05:57:10.556Z,12.79
2023-10-14T05:58:08.908Z,12.90
2023-10-14T05:59:07.470Z,13.02
2023-10-14T06:00:13.617Z,13.12
2023-10-14T06:01:14.899Z,13.17
2023-10-14T06:02:14.541Z,13.13
2023-10-14T06:03:13.603Z,12.84
2023-10-14T06:04:14.156Z,12.91
2023-10-14T06:05:10.976Z,13.15
2023-10-14T06:06:11.120Z,13.35
2023-10-14T06:07:16.440Z,13.35
2023-10-14T06:08:18.890Z,13.16
2023-10-14T06:09:18.120Z,13.25
2023-10-14T06:10:25.053Z,13.31
2023-10-14T06:11:21.926Z,13.59
2023-10-14T06:12:19.738Z,13.34
2023-10-14T06:13:16.547Z,13.57
2023-10-14T06:14:13.855Z,13.68
2023-10-14T06:15:10.739Z,13.90
2023-10-14T06:16:15.370Z,13.76
2023-10-14T06:17:13.225Z,13.76
2023-10-14T06:18:10.219Z,13.75
2023-10-14T06:19:07.203Z,13.85
2023-10-14T06:20:06.107Z,13.84
2023-10-14T06:21:02.817Z,13.81
2023-10-14T06:22:00.569Z,13.89
2023-10-14T06:23:00.322Z,13.93
2023-10-14T06:23:57.092Z,13.81
2023-10-14T06:24:54.921Z,13.69
2023-10-14T06:25:51.723Z,13.61
2023-10-14T06:26:48.376Z,13.42
2023-10-14T06:27:46.856Z,13.48
2023-10-14T06:28:45.035Z,13.51
2023-10-14T06:29:42.690Z,13.55
2023-10-14T06:30:39.509Z,13.79
2023-10-14T06:31:38.848Z,13.52
2023-10-14T06:32:35.624Z,13.65
2023-10-14T06:33:32.427Z,13.54
2023-10-14T06:34:29.335Z,13.61
2023-10-14T06:35:28.319Z,13.81
2023-10-14T06:36:27.855Z,14.08
2023-10-14T06:37:26.201Z,14.28
2023-10-14T06:38:23.764Z,14.32
2023-10-14T06:39:27.689Z,14.37
2023-10-14T06:40:24.403Z,14.42
2023-10-14T06:41:21.025Z,14.38
2023-10-14T06:42:20.830Z,14.67
2023-10-14T06:43:19.261Z,14.83
2023-10-14T06:44:16.493Z,14.96
2023-10-14T06:45:15.085Z,14.80
2023-10-14T06:46:13.411Z,14.93
2023-10-14T06:47:10.212Z,14.47
2023-10-14T06:48:11.141Z,14.29
2023-10-14T06:49:15.023Z,14.72
2023-10-14T06:50:13.668Z,14.50
2023-10-14T06:51:10.566Z,14.61
2023-10-14T06:52:07.220Z,14.57
2023-10-14T06:53:08.745Z,14.77
2023-10-14T06:54:05.775Z,15.29
2023-10-14T06:55:02.394Z,15.15
2023-10-14T06:56:02.687Z,15.26
2023-10-14T06:57:03.874Z,14.90
2023-10-14T06:58:00.546Z,15.17
2023-10-14T06:58:57.280Z,15.26
2023-10-14T06:59:55.244Z,15.02
2023-10-14T07:00:51.932Z,15.02
2023-10-14T07:01:48.871Z,15.17
2023-10-14T07:02:45.620Z,15.46
2023-10-14T07:03:42.896Z,15.45
2023-10-14T07:04:40.444Z,15.33
2023-10-14T07:05:58.278Z,15.27
2023-10-14T07:07:00.302Z,15.33
2023-10-14T07:07:58.760Z,15.56
2023-10-14T07:08:55.418Z,15.88
2023-10-14T07:09:52.161Z,16.02
2023-10-14T07:10:53.030Z,16.13
2023-10-14T07:11:49.741Z,16.14
2023-10-14T07:12:47.965Z,16.18
2023-10-14T07:13:47.300Z,16.40
2023-10-14T07:14:47.013Z,16.42
2023-10-14T07:15:45.322Z,16.70
2023-10-14T07:16:42.078Z,16.73
2023-10-14T07:17:38.821Z,16.53
2023-10-14T07:18:39.331Z,16.65
2023-10-14T07:19:37.019Z,16.77
2023-10-14T07:20:33.744Z,16.87
2023-10-14T07:21:33.174Z,16.98
2023-10-14T07:22:33.556Z,16.61
2023-10-14T07:23:35.742Z,16.53
2023-10-14T07:24:33.602Z,16.64
2023-10-14T07:25:35.300Z,16.54
2023-10-14T07:26:37.583Z,16.56
2023-10-14T07:27:37.031Z,16.53
2023-10-14T07:28:33.795Z,16.76
2023-10-14T07:29:30.568Z,17.17
2023-10-14T07:30:29.178Z,17.23
2023-10-14T07:31:26.051Z,16.95
2023-10-14T07:32:23.085Z,17.07
2023-10-14T07:33:21.500Z,17.23
2023-10-14T07:34:18.373Z,17.47
2023-10-14T07:35:18.893Z,17.36
2023-10-14T07:36:15.561Z,17.74
2023-10-14T07:37:18.113Z,17.96
2023-10-14T07:38:15.188Z,17.92
2023-10-14T07:39:29.695Z,17.96
2023-10-14T07:40:32.099Z,17.77
2023-10-14T07:41:28.911Z,17.79
2023-10-14T07:42:25.619Z,17.95
2023-10-14T07:43:22.375Z,18.02
2023-10-14T07:44:20.442Z,18.00
2023-10-14T07:45:17.188Z,17.70
2023-10-14T07:46:13.960Z,18.13
2023-10-14T07:47:12.507Z,17.86
2023-10-14T07:48:11.140Z,18.03
2023-10-14T07:49:08.915Z,17.91
2023-10-14T07:50:10.645Z,17.66
2023-10-14T07:51:22.185Z,17.42
2023-10-14T07:52:27.244Z,17.61
2023-10-14T07:53:24.158Z,17.47
2023-10-14T07:54:22.884Z,17.75
2023-10-14T07:55:27.197Z,17.89
2023-10-14T07:56:24.731Z,18.01
2023-10-14T07:57:21.465Z,18.14
2023-10-14T07:58:28.464Z,18.16
2023-10-14T07:59:25.387Z,17.75
2023-10-14T08:00:27.406Z,17.28
2023-10-14T08:01:24.774Z,17.74
2023-10-14T08:02:21.709Z,17.93
2023-10-14T08:03:26.269Z,18.37
2023-10-14T08:04:24.894Z,18.20
2023-10-14T08:05:21.727Z,18.25
2023-10-14T08:06:22.465Z,18.57
2023-10-14T08:07:19.152Z,18.53
2023-10-14T08:08:15.969Z,18.29
2023-10-14T08:09:30.101Z,18.56
2023-10-14T08:10:27.653Z,18.47
2023-10-14T08:11:24.458Z,18.61
2023-10-14T08:12:21.608Z,18.90
2023-10-14T08:13:22.577Z,18.88
2023-10-14T08:14:19.557Z,18.55
2023-10-14T08:15:18.874Z,18.72
2023-10-14T08:16:16.741Z,19.25
2023-10-14T08:17:13.805Z,19.11
2023-10-14T08:18:12.594Z,19.39
2023-10-14T08:19:11.870Z,19.33
2023-10-14T08:20:13.760Z,19.45
2023-10-14T08:21:13.366Z,19.89
2023-10-14T08:22:15.499Z,19.55
2023-10-14T08:23:13.096Z,18.75
2023-10-14T08:24:09.944Z,18.50
2023-10-14T08:25:09.172Z,18.76
2023-10-14T08:26:14.557Z,18.90
2023-10-14T08:27:13.466Z,18.65
2023-10-14T08:28:10.953Z,18.98
2023-10-14T08:29:07.620Z,19.03
2023-10-14T08:30:12.386Z,18.93
2023-10-14T08:31:09.673Z,19.19
2023-10-14T08:32:06.446Z,19.33
2023-10-14T08:33:03.718Z,19.50
2023-10-14T08:34:02.984Z,19.70
2023-10-14T08:34:59.860Z,20.01
2023-10-14T08:35:57.753Z,20.31
2023-10-14T08:36:57.696Z,20.09
2023-10-14T08:37:55.923Z,19.12
2023-10-14T08:38:52.573Z,19.47
2023-10-14T08:39:49.289Z,19.67
2023-10-14T08:40:50.827Z,20.08
2023-10-14T08:41:49.272Z,20.29
2023-10-14T08:42:50.545Z,20.14
2023-10-14T08:43:51.165Z,20.47
2023-10-14T08:44:50.483Z,20.26
2023-10-14T08:45:50.342Z,20.27
2023-10-14T08:46:49.405Z,20.63
2023-10-14T08:47:48.421Z,21.05
2023-10-14T08:48:47.706Z,21.16
2023-10-14T08:49:46.393Z,21.19
2023-10-14T08:50:44.010Z,21.23
2023-10-14T08:51:53.574Z,21.20
2023-10-14T08:52:57.393Z,21.42
2023-10-14T08:53:55.741Z,21.10
2023-10-14T08:54:52.616Z,20.51
2023-10-14T08:55:50.030Z,20.54
2023-10-14T08:56:49.620Z,20.64
2023-10-14T08:57:47.696Z,20.06
2023-10-14T08:58:44.551Z,20.48
2023-10-14T08:59:42.842Z,20.85
2023-10-14T09:00:39.606Z,20.75
2023-10-14T09:01:37.152Z,20.91
2023-10-14T09:02:37.913Z,20.86
2023-10-14T09:03:34.737Z,20.75
2023-10-14T09:04:31.888Z,21.02
2023-10-14T09:05:31.425Z,21.09
2023-10-14T09:06:28.215Z,21.03
2023-10-14T09:07:24.972Z,21.29
2023-10-14T09:08:22.246Z,20.55
2023-10-14T09:09:22.241Z,20.92
2023-10-14T09:10:21.041Z,20.96
2023-10-14T09:11:34.971Z,20.83
2023-10-14T09:12:32.217Z,21.18
2023-10-14T09:13:29.047Z,21.45
2023-10-14T09:14:25.992Z,21.66
2023-10-14T09:15:23.555Z,21.70
2023-10-14T09:16:29.301Z,22.10
2023-10-14T09:17:26.138Z,21.92
2023-10-14T09:18:28.923Z,21.23
2023-10-14T09:19:25.994Z,21.67
2023-10-14T09:20:39.809Z,22.18
2023-10-14T09:21:44.319Z,22.47
2023-10-14T09:22:41.007Z,22.18
2023-10-14T09:23:41.386Z,21.99
2023-10-14T09:24:38.923Z,21.65
2023-10-14T09:25:41.500Z,21.71
2023-10-14T09:26:45.467Z,21.65
2023-10-14T09:27:50.100Z,22.16
2023-10-14T09:28:46.957Z,21.98
2023-10-14T09:29:44.916Z,21.81
2023-10-14T09:30:46.222Z,22.45
2023-10-14T09:31:48.284Z,22.69
2023-10-14T09:32:45.063Z,22.75
2023-10-14T09:33:43.972Z,22.83
2023-10-14T09:34:43.430Z,22.79
2023-10-14T09:35:42.785Z,22.53
2023-10-14T09:36:44.418Z,22.08
2023-10-14T09:37:41.145Z,22.49
2023-10-14T09:38:38.369Z,22.87
2023-10-14T09:39:40.003Z,23.24
2023-10-14T09:40:37.541Z,23.35
2023-10-14T09:41:36.585Z,22.89
2023-10-14T09:42:33.820Z,22.83
2023-10-14T09:43:35.240Z,22.75
2023-10-14T09:44:32.931Z,22.77
2023-10-14T09:45:31.624Z,22.95
2023-10-14T09:46:29.226Z,23.26
2023-10-14T09:47:26.993Z,23.49
2023-10-14T09:48:31.647Z,23.47
2023-10-14T09:49:29.578Z,23.08
2023-10-14T09:50:27.970Z,23.08
2023-10-14T09:51:25.388Z,22.80
2023-10-14T09:52:22.953Z,22.69
2023-10-14T09:53:20.216Z,22.86
2023-10-14T09:54:17.961Z,23.18
2023-10-14T09:55:17.327Z,23.24
2023-10-14T09:56:17.231Z,22.76
2023-10-14T09:57:18.539Z,23.22
2023-10-14T09:58:19.465Z,23.46
2023-10-14T09:59:18.283Z,23.47
2023-10-14T10:00:17.969Z,23.71
2023-10-14T10:01:16.753Z,24.13
2023-10-14T10:02:14.093Z,24.29
2023-10-14T10:03:12.620Z,23.14
2023-10-14T10:04:25.507Z,23.83
2023-10-14T10:05:30.256Z,23.77
2023-10-14T10:06:44.413Z,23.38
2023-10-14T10:08:01.549Z,23.56
2023-10-14T10:09:18.587Z,23.63
2023-10-14T10:10:19.660Z,23.18
2023-10-14T10:11:24.603Z,23.47
2023-10-14T10:12:23.847Z,23.79
2023-10-14T10:13:24.594Z,23.59
2023-10-14T10:14:22.472Z,23.80
2023-10-14T10:15:20.933Z,24.19
2023-10-14T10:16:23.380Z,24.27
2023-10-14T10:17:23.977Z,24.35
2023-10-14T10:18:24.072Z,24.49
2023-10-14T10:19:24.954Z,24.43
2023-10-14T10:20:28.931Z,24.17
2023-10-14T10:21:41.562Z,24.65
2023-10-14T10:22:45.847Z,24.21
2023-10-14T10:23:42.498Z,23.51
2023-10-14T10:24:43.153Z,23.70
2023-10-14T10:25:40.856Z,24.30
2023-10-14T10:27:09.779Z,23.45
2023-10-14T10:28:44.989Z,23.85
2023-10-14T10:29:46.962Z,23.40
2023-10-14T10:30:48.288Z,23.57
2023-10-14T10:32:06.185Z,23.84
2023-10-14T10:33:14.721Z,24.36
2023-10-14T10:34:11.501Z,24.64
2023-10-14T10:35:08.425Z,24.51
2023-10-14T10:36:05.540Z,24.29
2023-10-14T10:37:05.735Z,24.25
2023-10-14T10:38:02.498Z,23.59
2023-10-14T10:39:17.784Z,23.74
2023-10-14T10:40:19.147Z,24.18
2023-10-14T10:41:29.061Z,24.50
2023-10-14T10:42:26.364Z,24.35
2023-10-14T10:43:23.111Z,24.08
2023-10-14T10:44:20.471Z,24.30
2023-10-14T10:45:22.761Z,24.55
2023-10-14T10:46:38.721Z,24.75
2023-10-14T10:48:06.181Z,23.97
2023-10-14T10:49:02.965Z,24.08
2023-10-14T10:50:04.101Z,23.42
2023-10-14T10:51:02.834Z,23.59
2023-10-14T10:52:08.664Z,24.41
2023-10-14T10:53:08.406Z,24.44
2023-10-14T10:54:05.391Z,24.67
2023-10-14T10:55:02.588Z,24.19
2023-10-14T10:55:59.340Z,24.35
2023-10-14T10:57:07.260Z,24.52
2023-10-14T10:58:09.051Z,24.50
2023-10-14T10:59:05.979Z,24.71
2023-10-14T11:00:10.341Z,24.68
2023-10-14T11:01:08.436Z,24.62
2023-10-14T11:02:12.059Z,25.08
2023-10-14T11:03:14.769Z,24.98
2023-10-14T11:04:13.576Z,25.22
2023-10-14T11:05:10.523Z,25.07
2023-10-14T11:07:50.014Z,24.64
2023-10-14T11:08:49.120Z,23.92
2023-10-14T11:09:53.444Z,24.72
2023-10-14T11:12:08.029Z,24.48
2023-10-14T11:13:09.062Z,23.93
2023-10-14T11:14:18.476Z,24.71
2023-10-14T11:15:44.417Z,25.00
2023-10-14T11:16:47.485Z,25.06
2023-10-14T11:17:48.182Z,24.63
2023-10-14T11:19:00.758Z,24.97
2023-10-14T11:19:58.528Z,25.43
2023-10-14T11:24:03.562Z,25.55
2023-10-14T11:27:43.156Z,25.56
2023-10-14T11:28:42.247Z,25.38
2023-10-14T11:29:42.470Z,25.71
2023-10-14T11:30:43.384Z,25.62
2023-10-14T11:31:45.490Z,25.58
2023-10-14T11:34:04.409Z,24.52
2023-10-14T11:35:06.440Z,24.40
2023-10-14T11:36:22.719Z,25.05
2023-10-14T11:38:32.584Z,25.61
2023-10-14T11:41:32.585Z,25.03
2023-10-14T11:42:33.262Z,24.13
2023-10-14T11:47:55.481Z,25.38
2023-10-14T11:48:59.200Z,25.14
2023-10-14T11:49:56.648Z,25.41
2023-10-14T11:53:14.469Z,25.01
2023-10-14T11:54:16.170Z,25.14
2023-10-14T11:56:30.208Z,25.85
2023-10-14T11:57:27.418Z,25.88
2023-10-14T11:58:36.748Z,25.71
2023-10-14T12:01:46.657Z,25.67
2023-10-14T12:03:12.157Z,25.36
2023-10-14T12:04:14.688Z,24.93
2023-10-14T12:05:39.707Z,25.23
2023-10-14T12:06:36.508Z,25.24
2023-10-14T12:07:33.950Z,25.21
2023-10-14T12:08:40.048Z,25.22
2023-10-14T12:09:36.713Z,24.71
2023-10-14T12:10:33.355Z,25.35
2023-10-14T12:11:30.160Z,24.97
2023-10-14T12:12:28.105Z,24.92
2023-10-14T12:13:37.704Z,25.23
2023-10-14T12:14:42.188Z,25.75
2023-10-14T12:15:38.886Z,25.76
2023-10-14T12:16:35.598Z,25.51
2023-10-14T12:17:36.914Z,24.75
2023-10-14T12:18:36.391Z,24.67
2023-10-14T12:19:33.045Z,25.15
2023-10-14T12:20:32.340Z,25.53
2023-10-14T12:21:28.987Z,25.52
2023-10-14T12:22:25.953Z,25.66
2023-10-14T12:23:23.035Z,26.11
2023-10-14T12:24:20.761Z,25.97
2023-10-14T12:25:19.208Z,26.06
2023-10-14T12:26:30.993Z,25.93
2023-10-14T12:27:34.597Z,26.20
2023-10-14T12:28:32.161Z,25.22
2023-10-14T12:29:30.915Z,25.26
2023-10-14T12:30:47.645Z,25.02
2023-10-14T12:31:47.912Z,24.84
2023-10-14T12:32:48.022Z,24.98
2023-10-14T12:33:47.323Z,25.38
2023-10-14T12:34:44.774Z,25.70
2023-10-14T12:35:41.561Z,25.62
2023-10-14T12:36:42.703Z,25.56
2023-10-14T12:37:39.614Z,25.29
2023-10-14T12:38:37.467Z,25.16
2023-10-14T12:39:44.202Z,25.35
2023-10-14T12:40:41.362Z,25.51
2023-10-14T12:41:41.143Z,25.23
2023-10-14T12:42:48.057Z,25.29
2023-10-14T12:43:44.732Z,25.38
2023-10-14T12:44:42.262Z,24.92
2023-10-14T12:45:39.701Z,24.93
2023-10-14T12:46:41.806Z,24.83
2023-10-14T12:47:39.983Z,25.04
2023-10-14T12:48:40.561Z,25.28
2023-10-14T12:49:39.098Z,25.48
2023-10-14T12:50:41.585Z,25.31
2023-10-14T12:51:45.160Z,25.38
2023-10-14T12:52:43.067Z,25.13
2023-10-14T12:53:46.947Z,25.25
2023-10-14T12:54:43.972Z,25.42
2023-10-14T12:55:45.926Z,24.90
2023-10-14T12:56:42.594Z,24.84
2023-10-14T12:57:39.321Z,25.03
2023-10-14T12:58:36.070Z,25.35
2023-10-14T12:59:33.267Z,25.11
2023-10-14T13:00:31.080Z,25.07
2023-10-14T13:01:27.849Z,25.07
2023-10-14T13:02:24.545Z,25.17
2023-10-14T13:03:21.284Z,25.18
2023-10-14T13:04:18.436Z,25.26
2023-10-14T13:05:19.966Z,25.55
2023-10-14T13:06:17.055Z,25.40
2023-10-14T13:07:13.874Z,25.53
2023-10-14T13:08:10.777Z,25.53
2023-10-14T13:09:09.711Z,25.14
2023-10-14T13:10:10.188Z,25.29
2023-10-14T13:11:07.208Z,24.92
2023-10-14T13:12:10.189Z,24.26
2023-10-14T13:13:06.906Z,24.81
2023-10-14T13:14:03.632Z,25.22
2023-10-14T13:15:05.897Z,25.35
2023-10-14T13:16:02.673Z,25.29
2023-10-14T13:17:01.114Z,24.81
2023-10-14T13:18:06.652Z,24.90
2023-10-14T13:19:05.156Z,25.24
2023-10-14T13:20:06.637Z,25.11
2023-10-14T13:21:03.450Z,25.50
2023-10-14T13:22:00.181Z,25.49
2023-10-14T13:23:05.885Z,25.48
2023-10-14T13:24:08.116Z,25.04
2023-10-14T13:25:05.056Z,24.92
2023-10-14T13:26:01.697Z,24.92
2023-10-14T13:27:00.669Z,24.88
2023-10-14T13:27:57.482Z,24.88